Tuesday, November 21, 2017, 3:48 PM GMT
Back to Local

CYSJ, Saint John, N. B.

Location: , , Canada Lat: 45.333
Local Time: 3:48 PM GMT (15:48 GMT) Lon: -65.883
Time Zone: GMT Elev: 337 ft

Show me the last for .
Show Decoded

2017-11-21 15:00 METAR CYSJ 211500Z 27005KT 220V310 15SM FEW150 SCT240 M04/M14 A3011 RMK AC1CI3
                 SLP205 =
2017-11-21 14:00 METAR CYSJ 211400Z 31004KT 280V350 15SM FEW240 M05/M14 A3010 RMK CI2 SLP202 =
2017-11-21 13:00 METAR CYSJ 211300Z 25005KT 230V290 15SM FEW240 M07/M14 A3011 RMK CI1 SLP203 =
2017-11-21 12:00 METAR CYSJ 211200Z 31003KT 15SM FEW025 FEW240 M09/M14 A3008 RMK SC1CI1 SLP195 =
2017-11-21 11:00 METAR CYSJ 211100Z 30009KT 15SM FEW040 FEW240 M09/M15 A3005 RMK SC1CI1 SC TR CI
                 TR SLP184 =
2017-11-21 10:00 METAR CYSJ 211000Z 28006KT 15SM SKC M09/M15 A3005 RMK SLP185 =
2017-11-21 09:00 METAR CYSJ 210900Z 29007KT 260V320 15SM SKC M09/M15 A3001 RMK SLP172 =
2017-11-21 08:00 METAR CYSJ 210800Z 30014G19KT 15SM SKC M09/M15 A2999 RMK SLP163 =
2017-11-21 07:00 METAR CYSJ 210700Z 28015G20KT 15SM SKC M09/M15 A2997 RMK SLP157 =
2017-11-21 06:00 METAR CYSJ 210600Z 29007G15KT 15SM SKC M08/M15 A2994 RMK PRESRR SLP146 =
2017-11-21 05:00 METAR CYSJ 210500Z 31006G17KT 280V340 15SM SKC M08/M15 A2990 RMK SLP133 =
2017-11-21 04:00 METAR CYSJ 210400Z 30012G21KT 15SM FEW035 M07/M15 A2988 RMK SC1 SLP125 =
2017-11-21 03:00 METAR CYSJ 210300Z 31014G26KT 15SM FEW035 M07/M15 A2984 RMK SC1 SLP114 =
2017-11-21 02:00 METAR CYSJ 210200Z 31015G23KT 15SM FEW035 M05/M13 A2981 RMK SC1 SLP102 =
2017-11-21 01:00 METAR CYSJ 210100Z 28017KT 15SM BKN039 M04/M13 A2978 RMK SC6 SLP093 =
2017-11-21 00:59 METAR CYSJ 210059Z 28016G21KT 15SM BKN039 M04/M13 A2978 RMK SC6 SLP093 =
2017-11-21 00:00 METAR CYSJ 210000Z 29014G20KT 15SM BKN040 M04/M12 A2975 RMK SC5 SLP083 =
2017-11-20 23:00 METAR CYSJ 202300Z 29013G21KT 15SM SCT038 BKN047 M03/M12 A2972 RMK SC3SC4 SLP072
                 =
2017-11-20 22:00 METAR CYSJ 202200Z 27015G23KT 240V310 15SM BKN047 M02/M11 A2968 RMK SC6 SLP057 =
2017-11-20 21:00 METAR CYSJ 202100Z 27016G21KT 15SM BKN049 M01/M09 A2965 RMK SC7 SLP048 =
2017-11-20 20:00 METAR CYSJ 202000Z 27011G20KT 15SM BKN045 BKN055 M00/M09 A2963 RMK SC5SC2 SLP039
                 =
2017-11-20 19:00 METAR CYSJ 201900Z 28013G19KT 15SM BKN042 00/M09 A2960 RMK SC7 SLP031 =
2017-11-20 18:00 METAR CYSJ 201800Z 29016G23KT 15SM BKN035 00/M09 A2959 RMK SC6 SLP025 =
2017-11-20 17:00 METAR CYSJ 201700Z 28017G26KT 15SM BKN034 00/M08 A2958 RMK SC6 SLP023 =
2017-11-20 16:00 METAR CYSJ 201600Z 29009G17KT 260V320 15SM BKN031 BKN037 M00/M07 A2958 RMK
                 SC6SC1 SLP023 =

Support USWX by starting your Amazon purchase here.